Time;durP1;ratioP1;P1;durP2;ratioP2;P2;SDS_P1;SDS_P2;PMS_P1;PMS_P2;Temp;Humidity;BMP_temperature;BMP_pressure;BME280_temperature;BME280_humidity;BME280_pressure;Samples;Min_cycle;Max_cycle;Signal;HPM_P1;HPM_P2
2022/07/26 00:02:05;;;;;;;4.43;1.13;;;;;;;;;;5035527;28;20216;-70
2022/07/26 00:04:30;;;;;;;0.60;0.60;;;;;;;;;;5035907;28;20784;-69
2022/07/26 00:06:56;;;;;;;0.80;0.80;;;;;;;;;;5036043;28;20623;-69
2022/07/26 00:09:23;;;;;;;6.30;0.90;;;;;;;;;;5035941;28;20545;-70
2022/07/26 00:11:49;;;;;;;2.20;0.90;;;;;;;;;;5035191;28;20534;-70
2022/07/26 00:14:15;;;;;;;0.60;0.60;;;;;;;;;;5035182;28;20956;-70
2022/07/26 00:16:41;;;;;;;0.60;0.60;;;;;;;;;;5035843;28;20438;-70
2022/07/26 00:19:07;;;;;;;0.50;0.50;;;;;;;;;;5035866;28;20431;-70
2022/07/26 00:21:35;;;;;;;0.50;0.50;;;;;;;;;;5035819;28;20435;-70
2022/07/26 00:24:01;;;;;;;0.60;0.60;;;;;;;;;;5035085;28;20431;-70
2022/07/26 00:26:27;;;;;;;0.87;0.70;;;;;;;;;;5035269;28;20447;-70
2022/07/26 00:28:53;;;;;;;1.90;0.50;;;;;;;;;;5034973;28;20432;-70
2022/07/26 00:31:19;;;;;;;0.60;0.60;;;;;;;;;;5035450;28;20227;-70
2022/07/26 00:33:45;;;;;;;0.80;0.80;;;;;;;;;;5034754;28;20536;-70
2022/07/26 00:36:11;;;;;;;0.67;0.60;;;;;;;;;;5035259;28;20224;-69
2022/07/26 00:38:37;;;;;;;0.80;0.80;;;;;;;;;;5034325;28;20177;-70
2022/07/26 00:41:03;;;;;;;3.33;0.73;;;;;;;;;;5033468;28;20521;-70
2022/07/26 00:43:29;;;;;;;4.30;0.70;;;;;;;;;;5033921;28;20419;-69
2022/07/26 00:45:55;;;;;;;4.73;0.90;;;;;;;;;;5034210;28;20517;-69
2022/07/26 00:48:21;;;;;;;1.10;0.60;;;;;;;;;;5035139;28;20503;-70
2022/07/26 00:50:48;;;;;;;0.60;0.60;;;;;;;;;;5035266;28;20470;-70
2022/07/26 00:53:14;;;;;;;0.60;0.60;;;;;;;;;;5034381;28;20470;-69
2022/07/26 00:55:40;;;;;;;0.97;0.40;;;;;;;;;;5015500;28;20465;-69
2022/07/26 00:58:06;;;;;;;0.70;0.70;;;;;;;;;;5033572;28;20455;-70
2022/07/26 01:00:32;;;;;;;0.70;0.70;;;;;;;;;;5034397;28;20435;-70
2022/07/26 01:02:59;;;;;;;0.80;0.80;;;;;;;;;;5034492;28;20431;-70
2022/07/26 01:05:26;;;;;;;0.60;0.60;;;;;;;;;;5034860;28;20977;-70
2022/07/26 01:07:53;;;;;;;0.90;0.90;;;;;;;;;;5034840;28;20856;-70
2022/07/26 01:10:19;;;;;;;1.23;0.80;;;;;;;;;;5034436;28;20467;-70
2022/07/26 01:12:45;;;;;;;1.23;0.60;;;;;;;;;;5034094;28;20447;-70
2022/07/26 01:15:14;;;;;;;0.60;0.60;;;;;;;;;;5033984;28;20431;-70
2022/07/26 01:17:40;;;;;;;0.90;0.90;;;;;;;;;;5034755;28;20454;-70
2022/07/26 01:20:07;;;;;;;0.50;0.50;;;;;;;;;;5034275;28;20477;-69
2022/07/26 01:22:33;;;;;;;2.20;0.60;;;;;;;;;;5032946;28;20439;-70
2022/07/26 01:24:59;;;;;;;0.70;0.70;;;;;;;;;;5034764;28;20411;-70
2022/07/26 01:27:25;;;;;;;7.20;0.90;;;;;;;;;;5034579;28;20216;-70
2022/07/26 01:29:51;;;;;;;0.73;0.73;;;;;;;;;;5033948;28;20518;-70
2022/07/26 01:32:17;;;;;;;0.73;0.73;;;;;;;;;;5032686;28;20482;-70
2022/07/26 01:34:43;;;;;;;3.40;0.87;;;;;;;;;;5034410;28;20454;-70
2022/07/26 01:37:09;;;;;;;0.80;0.80;;;;;;;;;;5034538;28;20513;-69
2022/07/26 01:39:35;;;;;;;1.30;0.77;;;;;;;;;;5033865;28;20435;-70
2022/07/26 01:42:01;;;;;;;0.70;0.70;;;;;;;;;;5033407;28;20449;-70
2022/07/26 01:44:27;;;;;;;0.80;0.60;;;;;;;;;;5034046;28;20435;-69
2022/07/26 01:46:53;;;;;;;0.60;0.60;;;;;;;;;;5033840;28;20533;-70
2022/07/26 01:49:19;;;;;;;0.73;0.73;;;;;;;;;;5033971;28;20431;-70
2022/07/26 01:51:45;;;;;;;0.80;0.80;;;;;;;;;;5034049;28;20502;-70
2022/07/26 01:54:11;;;;;;;1.27;0.87;;;;;;;;;;5033524;28;20888;-70
2022/07/26 01:56:37;;;;;;;1.03;0.97;;;;;;;;;;5031955;28;20522;-69
2022/07/26 01:59:03;;;;;;;0.80;0.80;;;;;;;;;;5033305;28;20438;-71
2022/07/26 02:01:29;;;;;;;0.80;0.80;;;;;;;;;;5033589;28;20184;-70
2022/07/26 02:03:55;;;;;;;0.87;0.80;;;;;;;;;;5033477;28;20453;-70
2022/07/26 02:06:21;;;;;;;4.33;0.70;;;;;;;;;;5033857;28;20502;-70
2022/07/26 02:08:47;;;;;;;0.57;0.57;;;;;;;;;;5033342;28;20435;-70
2022/07/26 02:11:13;;;;;;;1.03;0.97;;;;;;;;;;5033741;28;20490;-70
2022/07/26 02:13:40;;;;;;;0.60;0.60;;;;;;;;;;5032805;28;20185;-70
2022/07/26 02:16:08;;;;;;;0.67;0.67;;;;;;;;;;5033452;28;20904;-70
2022/07/26 02:18:35;;;;;;;0.83;0.60;;;;;;;;;;5033143;28;20924;-69
2022/07/26 02:21:01;;;;;;;0.70;0.70;;;;;;;;;;5032985;28;20427;-70
2022/07/26 02:23:28;;;;;;;1.00;0.80;;;;;;;;;;5033190;28;20514;-69
2022/07/26 02:25:54;;;;;;;0.67;0.67;;;;;;;;;;5033362;28;20466;-69
2022/07/26 02:28:20;;;;;;;1.47;0.90;;;;;;;;;;5032542;28;20526;-70
2022/07/26 02:30:47;;;;;;;4.43;1.17;;;;;;;;;;5033444;28;20475;-70
2022/07/26 02:33:13;;;;;;;1.43;1.03;;;;;;;;;;5032918;28;20439;-70
2022/07/26 02:35:39;;;;;;;1.20;1.20;;;;;;;;;;5033331;28;20419;-70
2022/07/26 02:38:06;;;;;;;0.83;0.83;;;;;;;;;;5033314;28;20489;-70
2022/07/26 02:40:32;;;;;;;0.60;0.60;;;;;;;;;;5032583;28;20431;-69
2022/07/26 02:42:58;;;;;;;0.40;0.40;;;;;;;;;;5032385;28;20569;-69
2022/07/26 02:45:24;;;;;;;0.90;0.90;;;;;;;;;;5032814;28;20432;-70
2022/07/26 02:47:51;;;;;;;5.20;0.90;;;;;;;;;;5031857;28;20423;-69
2022/07/26 02:50:18;;;;;;;1.07;0.90;;;;;;;;;;5032597;28;20788;-70
2022/07/26 02:52:46;;;;;;;1.57;0.87;;;;;;;;;;5032674;28;20458;-70
2022/07/26 02:55:13;;;;;;;3.37;0.80;;;;;;;;;;5032505;28;20478;-69
2022/07/26 02:57:39;;;;;;;1.37;1.00;;;;;;;;;;5032741;28;20439;-69
2022/07/26 03:00:06;;;;;;;1.80;0.90;;;;;;;;;;5031940;28;20431;-69
2022/07/26 03:02:32;;;;;;;0.83;0.83;;;;;;;;;;5032248;28;20873;-69
2022/07/26 03:04:58;;;;;;;1.90;0.50;;;;;;;;;;5032802;28;20964;-69
2022/07/26 03:07:23;;;;;;;0.73;0.67;;;;;;;;;;5031963;28;20672;-70
2022/07/26 03:09:50;;;;;;;1.60;1.33;;;;;;;;;;5032946;28;20447;-70
2022/07/26 03:12:16;;;;;;;1.20;1.20;;;;;;;;;;5031691;28;20846;-69
2022/07/26 03:14:42;;;;;;;1.00;1.00;;;;;;;;;;5032273;28;20566;-70
2022/07/26 03:17:08;;;;;;;1.90;1.10;;;;;;;;;;5032524;28;20522;-69
2022/07/26 03:19:33;;;;;;;1.90;1.00;;;;;;;;;;5032277;28;20424;-70
2022/07/26 03:21:59;;;;;;;5.13;0.90;;;;;;;;;;5031827;28;20274;-71
2022/07/26 03:24:25;;;;;;;0.63;0.63;;;;;;;;;;5032507;28;20181;-71
2022/07/26 03:26:51;;;;;;;2.47;0.70;;;;;;;;;;5032843;28;20195;-71
2022/07/26 03:29:17;;;;;;;1.37;1.00;;;;;;;;;;5032055;28;20181;-71
2022/07/26 03:31:43;;;;;;;2.40;0.90;;;;;;;;;;5032119;28;20315;-71
2022/07/26 03:34:09;;;;;;;7.43;1.63;;;;;;;;;;5032198;28;20180;-71
2022/07/26 03:36:35;;;;;;;1.50;1.40;;;;;;;;;;5032766;28;20493;-71
2022/07/26 03:39:01;;;;;;;0.70;0.70;;;;;;;;;;5032407;28;20263;-71
2022/07/26 03:41:27;;;;;;;1.23;1.10;;;;;;;;;;5030764;28;20439;-71
2022/07/26 03:43:53;;;;;;;1.50;0.93;;;;;;;;;;5031630;28;20517;-71
2022/07/26 03:46:19;;;;;;;0.90;0.90;;;;;;;;;;5032356;28;20994;-71
2022/07/26 03:48:45;;;;;;;1.10;1.00;;;;;;;;;;5032319;28;20674;-71
2022/07/26 03:51:11;;;;;;;0.90;0.90;;;;;;;;;;5031906;28;20224;-71
2022/07/26 03:53:37;;;;;;;1.27;0.80;;;;;;;;;;5031423;28;21049;-71
2022/07/26 03:58:47;;;;;;;1.33;1.00;;;;;;;;;;5031751;28;20554;-71
2022/07/26 04:01:13;;;;;;;1.50;0.83;;;;;;;;;;5031829;28;20435;-71
2022/07/26 04:03:39;;;;;;;1.53;1.53;;;;;;;;;;5031457;28;20826;-71
2022/07/26 04:06:20;;;;;;;9.20;1.10;;;;;;;;;;4999650;28;20274;-71
2022/07/26 04:08:46;;;;;;;3.70;1.27;;;;;;;;;;5032301;28;20838;-71
2022/07/26 04:11:12;;;;;;;1.30;1.20;;;;;;;;;;5031416;28;20486;-71
2022/07/26 04:13:38;;;;;;;1.57;1.47;;;;;;;;;;5031166;28;20430;-71
2022/07/26 04:16:04;;;;;;;1.50;1.00;;;;;;;;;;5032135;28;20485;-71
2022/07/26 04:18:30;;;;;;;2.83;1.27;;;;;;;;;;5032768;28;20965;-71
2022/07/26 04:20:56;;;;;;;2.60;1.20;;;;;;;;;;5035789;28;20439;-71
2022/07/26 04:23:22;;;;;;;1.17;0.83;;;;;;;;;;5034775;28;20246;-71
2022/07/26 04:25:48;;;;;;;1.30;1.17;;;;;;;;;;5035868;28;20414;-71
2022/07/26 04:28:14;;;;;;;0.90;0.90;;;;;;;;;;5034712;28;20208;-71
2022/07/26 04:30:40;;;;;;;5.87;1.33;;;;;;;;;;5035826;28;20258;-71
2022/07/26 04:33:06;;;;;;;11.83;2.07;;;;;;;;;;5034776;28;20439;-71
2022/07/26 04:35:33;;;;;;;1.57;1.27;;;;;;;;;;5035026;28;20474;-71
2022/07/26 04:37:59;;;;;;;1.67;1.33;;;;;;;;;;5035313;28;20493;-71
2022/07/26 04:40:27;;;;;;;1.23;1.13;;;;;;;;;;5035238;28;20427;-70
2022/07/26 04:42:53;;;;;;;2.27;2.17;;;;;;;;;;5031894;28;20892;-71
2022/07/26 04:45:20;;;;;;;1.70;1.13;;;;;;;;;;5031968;28;20427;-71
2022/07/26 04:47:49;;;;;;;5.00;1.77;;;;;;;;;;5035104;28;20411;-71
2022/07/26 04:50:15;;;;;;;5.83;2.17;;;;;;;;;;5034916;28;20427;-71
2022/07/26 04:52:41;;;;;;;1.37;1.27;;;;;;;;;;5034533;28;20455;-71
2022/07/26 04:55:08;;;;;;;3.50;1.10;;;;;;;;;;5035021;28;21017;-68
2022/07/26 04:57:34;;;;;;;1.13;1.03;;;;;;;;;;5034401;28;20428;-68
2022/07/26 05:00:00;;;;;;;5.33;1.40;;;;;;;;;;5034481;28;20817;-68
2022/07/26 05:02:26;;;;;;;2.57;1.17;;;;;;;;;;5033899;28;20971;-68
2022/07/26 05:04:52;;;;;;;2.80;0.97;;;;;;;;;;5034275;28;20427;-68
2022/07/26 05:07:18;;;;;;;2.67;0.93;;;;;;;;;;5033557;28;20492;-68
2022/07/26 05:09:44;;;;;;;4.53;1.30;;;;;;;;;;5034840;28;20411;-68
2022/07/26 05:12:10;;;;;;;3.93;1.10;;;;;;;;;;5032218;28;20485;-68
2022/07/26 05:14:36;;;;;;;1.80;1.13;;;;;;;;;;5034142;28;20558;-68
2022/07/26 05:17:03;;;;;;;8.43;2.77;;;;;;;;;;5015079;28;20428;-68
2022/07/26 05:19:29;;;;;;;6.10;1.77;;;;;;;;;;5032910;28;20465;-68
2022/07/26 05:21:55;;;;;;;1.53;1.53;;;;;;;;;;5024467;28;20444;-68
2022/07/26 05:24:21;;;;;;;1.47;1.03;;;;;;;;;;5014616;28;20430;-68
2022/07/26 05:26:47;;;;;;;0.87;0.87;;;;;;;;;;5032899;28;20226;-68
2022/07/26 05:29:12;;;;;;;16.17;2.37;;;;;;;;;;5033100;28;20419;-68
2022/07/26 05:31:38;;;;;;;2.60;1.20;;;;;;;;;;5032545;28;21021;-68
2022/07/26 05:34:04;;;;;;;1.10;1.10;;;;;;;;;;5034166;28;20463;-68
2022/07/26 05:36:30;;;;;;;4.47;1.30;;;;;;;;;;5034542;28;20510;-68
2022/07/26 05:38:56;;;;;;;7.77;1.30;;;;;;;;;;5034390;28;20469;-68
2022/07/26 05:41:22;;;;;;;7.53;1.13;;;;;;;;;;5034441;28;20454;-68
2022/07/26 05:43:48;;;;;;;1.17;1.17;;;;;;;;;;5033704;28;20485;-68
2022/07/26 05:46:14;;;;;;;4.73;1.20;;;;;;;;;;5033224;28;20426;-68
2022/07/26 05:48:41;;;;;;;6.43;1.03;;;;;;;;;;5034340;28;20423;-68
2022/07/26 05:51:07;;;;;;;1.07;1.00;;;;;;;;;;5034339;28;20467;-68
2022/07/26 05:53:33;;;;;;;1.10;1.10;;;;;;;;;;5033738;28;20478;-68
2022/07/26 05:55:59;;;;;;;1.13;1.03;;;;;;;;;;5032816;28;20791;-68
2022/07/26 05:58:25;;;;;;;1.23;1.13;;;;;;;;;;5032531;28;20515;-68
2022/07/26 06:00:51;;;;;;;3.70;1.20;;;;;;;;;;5034026;28;20690;-68
2022/07/26 06:03:23;;;;;;;1.17;0.90;;;;;;;;;;5033730;28;20424;-68
2022/07/26 06:05:50;;;;;;;1.17;1.17;;;;;;;;;;5033995;28;20831;-68
2022/07/26 06:08:16;;;;;;;2.00;0.90;;;;;;;;;;5032677;28;20462;-67
2022/07/26 06:10:42;;;;;;;1.07;1.07;;;;;;;;;;5033709;28;20463;-67
2022/07/26 06:13:08;;;;;;;0.90;0.90;;;;;;;;;;5033186;28;20534;-67
2022/07/26 06:15:34;;;;;;;1.20;1.10;;;;;;;;;;5033755;28;20412;-68
2022/07/26 06:18:00;;;;;;;1.80;0.93;;;;;;;;;;5033791;28;20431;-67
2022/07/26 06:20:26;;;;;;;2.33;1.03;;;;;;;;;;5032459;28;20183;-67
2022/07/26 06:22:52;;;;;;;1.47;1.00;;;;;;;;;;5033207;28;20514;-67
2022/07/26 06:25:18;;;;;;;1.80;1.70;;;;;;;;;;5033605;28;20427;-67
2022/07/26 06:27:44;;;;;;;4.20;1.83;;;;;;;;;;5033214;28;20185;-67
2022/07/26 06:30:10;;;;;;;1.13;1.13;;;;;;;;;;5033135;28;20430;-67
2022/07/26 06:32:36;;;;;;;1.57;1.47;;;;;;;;;;5033175;28;20435;-68
2022/07/26 06:35:02;;;;;;;5.70;1.23;;;;;;;;;;5033069;28;20427;-68
2022/07/26 06:37:28;;;;;;;1.23;1.03;;;;;;;;;;5033395;28;20521;-72
2022/07/26 06:39:54;;;;;;;0.90;0.73;;;;;;;;;;5033212;28;20951;-68
2022/07/26 06:42:20;;;;;;;1.10;1.10;;;;;;;;;;5032571;28;20415;-67
2022/07/26 06:44:46;;;;;;;1.17;1.00;;;;;;;;;;5033272;28;20172;-68
2022/07/26 06:47:12;;;;;;;1.40;1.30;;;;;;;;;;5032816;28;20315;-68
2022/07/26 06:49:38;;;;;;;4.83;1.37;;;;;;;;;;5030987;28;20423;-67
2022/07/26 06:52:04;;;;;;;2.87;1.20;;;;;;;;;;5032601;28;20573;-68
2022/07/26 06:54:30;;;;;;;3.07;0.60;;;;;;;;;;5033095;28;20230;-68
2022/07/26 06:56:56;;;;;;;7.20;1.37;;;;;;;;;;5032915;28;20513;-68
2022/07/26 06:59:22;;;;;;;1.77;1.10;;;;;;;;;;5032669;28;20427;-68
2022/07/26 07:01:48;;;;;;;1.80;1.10;;;;;;;;;;5027315;28;20439;-68
2022/07/26 07:04:14;;;;;;;6.17;1.27;;;;;;;;;;5030463;28;20216;-68
2022/07/26 07:06:40;;;;;;;5.87;1.00;;;;;;;;;;5032507;28;20867;-68
2022/07/26 07:09:06;;;;;;;3.90;1.10;;;;;;;;;;5032445;28;20218;-67
2022/07/26 07:11:32;;;;;;;1.27;0.70;;;;;;;;;;5032048;28;20212;-68
2022/07/26 07:13:58;;;;;;;0.87;0.77;;;;;;;;;;5031268;28;20510;-68
2022/07/26 07:16:24;;;;;;;0.67;0.67;;;;;;;;;;5031601;28;20764;-68
2022/07/26 07:18:50;;;;;;;4.27;0.63;;;;;;;;;;5032231;28;20426;-67
2022/07/26 07:21:16;;;;;;;3.50;1.53;;;;;;;;;;5032448;28;20476;-67
2022/07/26 07:23:42;;;;;;;1.10;1.10;;;;;;;;;;5030849;28;20416;-67
2022/07/26 07:26:08;;;;;;;1.40;0.97;;;;;;;;;;5032111;28;20786;-67
2022/07/26 07:28:37;;;;;;;2.70;1.10;;;;;;;;;;5032161;28;20628;-67
2022/07/26 07:31:03;;;;;;;0.87;0.87;;;;;;;;;;5032413;28;20270;-68
2022/07/26 07:33:29;;;;;;;0.80;0.80;;;;;;;;;;5031757;28;20935;-68
2022/07/26 07:35:55;;;;;;;1.40;1.40;;;;;;;;;;5031014;28;20509;-67
2022/07/26 07:38:21;;;;;;;0.73;0.73;;;;;;;;;;5028417;28;20200;-67
2022/07/26 07:40:47;;;;;;;1.47;1.37;;;;;;;;;;5026588;28;20671;-68
2022/07/26 07:43:13;;;;;;;1.13;1.03;;;;;;;;;;5031196;28;20423;-68
2022/07/26 07:45:39;;;;;;;0.90;0.90;;;;;;;;;;5031881;28;20188;-68
2022/07/26 07:48:05;;;;;;;1.30;1.17;;;;;;;;;;5031709;28;20852;-67
2022/07/26 07:50:31;;;;;;;2.33;0.90;;;;;;;;;;5032148;28;20420;-67
2022/07/26 07:52:57;;;;;;;1.13;0.93;;;;;;;;;;5031463;28;20481;-67
2022/07/26 07:55:23;;;;;;;1.60;1.00;;;;;;;;;;5034583;28;20419;-68
2022/07/26 07:57:49;;;;;;;1.13;0.70;;;;;;;;;;5035337;28;20435;-68
2022/07/26 08:00:18;;;;;;;3.60;0.90;;;;;;;;;;5035946;28;20216;-68
2022/07/26 08:02:44;;;;;;;1.03;0.90;;;;;;;;;;5035541;28;20407;-67
2022/07/26 08:05:10;;;;;;;2.10;1.40;;;;;;;;;;5036322;28;20911;-67
2022/07/26 08:07:36;;;;;;;6.50;1.20;;;;;;;;;;5035111;28;20445;-67
2022/07/26 08:10:02;;;;;;;2.63;0.97;;;;;;;;;;5036144;28;20419;-67
2022/07/26 08:12:28;;;;;;;3.43;1.77;;;;;;;;;;5029533;28;20302;-68
2022/07/26 08:14:54;;;;;;;1.03;1.00;;;;;;;;;;5039081;28;20929;-68
2022/07/26 08:17:20;;;;;;;0.93;0.90;;;;;;;;;;5041820;28;20582;-68
2022/07/26 08:19:46;;;;;;;1.37;1.27;;;;;;;;;;5035903;28;20613;-68
2022/07/26 08:22:12;;;;;;;12.37;0.80;;;;;;;;;;5035212;28;20419;-67
2022/07/26 08:24:38;;;;;;;1.07;0.87;;;;;;;;;;5035605;28;20250;-67
2022/07/26 08:27:04;;;;;;;1.10;1.00;;;;;;;;;;5034560;28;20436;-68
2022/07/26 08:29:30;;;;;;;1.20;1.10;;;;;;;;;;5034336;28;20442;-68
2022/07/26 08:31:56;;;;;;;2.43;1.37;;;;;;;;;;5034881;28;20987;-68
2022/07/26 08:34:22;;;;;;;1.30;1.20;;;;;;;;;;5035162;28;20419;-68
2022/07/26 08:36:48;;;;;;;0.97;0.97;;;;;;;;;;5033841;28;20414;-67
2022/07/26 08:39:14;;;;;;;2.43;0.70;;;;;;;;;;5035138;28;20192;-67
2022/07/26 08:41:41;;;;;;;0.90;0.80;;;;;;;;;;5035006;28;20432;-68
2022/07/26 08:44:07;;;;;;;1.70;0.80;;;;;;;;;;5034444;28;20296;-68
2022/07/26 08:46:35;;;;;;;4.47;1.63;;;;;;;;;;5034901;28;20820;-67
2022/07/26 08:49:01;;;;;;;2.23;1.20;;;;;;;;;;5035084;28;20438;-67
2022/07/26 08:51:27;;;;;;;3.60;0.93;;;;;;;;;;5033648;28;20566;-67
2022/07/26 08:53:54;;;;;;;1.00;0.90;;;;;;;;;;5034569;28;20490;-67
2022/07/26 08:56:20;;;;;;;1.27;1.10;;;;;;;;;;5033339;28;20199;-67
2022/07/26 08:58:46;;;;;;;0.77;0.77;;;;;;;;;;5034441;28;20419;-67
2022/07/26 09:01:12;;;;;;;0.90;0.90;;;;;;;;;;5034859;28;20192;-67
2022/07/26 09:03:38;;;;;;;2.10;0.80;;;;;;;;;;5030252;28;20272;-67
2022/07/26 09:06:15;;;;;;;0.90;0.70;;;;;;;;;;5033639;28;20431;-68
2022/07/26 09:08:41;;;;;;;1.37;0.90;;;;;;;;;;5034497;28;20517;-67
2022/07/26 09:11:26;;;;;;;1.00;1.00;;;;;;;;;;5034697;28;20482;-67
2022/07/26 09:13:53;;;;;;;6.07;0.90;;;;;;;;;;5033708;28;20771;-67
2022/07/26 09:16:19;;;;;;;1.23;1.00;;;;;;;;;;5034517;28;20463;-68
2022/07/26 09:18:45;;;;;;;1.00;1.00;;;;;;;;;;5034261;28;20438;-68
2022/07/26 09:21:31;;;;;;;0.80;0.80;;;;;;;;;;5034501;28;20807;-67
2022/07/26 09:23:57;;;;;;;0.60;0.60;;;;;;;;;;5034003;28;20933;-67
2022/07/26 09:26:23;;;;;;;3.40;1.10;;;;;;;;;;5033690;28;20939;-68
2022/07/26 09:29:06;;;;;;;1.33;0.93;;;;;;;;;;5032588;28;20498;-67
2022/07/26 09:31:32;;;;;;;2.40;0.90;;;;;;;;;;5034599;28;20471;-67
2022/07/26 09:33:58;;;;;;;0.93;0.93;;;;;;;;;;5032572;28;20988;-67
2022/07/26 09:36:24;;;;;;;1.00;0.87;;;;;;;;;;5032149;28;20442;-67
2022/07/26 09:38:52;;;;;;;2.30;0.90;;;;;;;;;;5034217;28;20431;-67
2022/07/26 09:41:21;;;;;;;1.17;1.13;;;;;;;;;;5034408;28;20477;-67
2022/07/26 09:43:47;;;;;;;0.60;0.60;;;;;;;;;;5033595;28;20975;-67
2022/07/26 09:46:14;;;;;;;1.07;0.90;;;;;;;;;;5034312;28;20767;-67
2022/07/26 09:48:40;;;;;;;0.70;0.70;;;;;;;;;;5034196;28;20424;-67
2022/07/26 09:51:06;;;;;;;2.57;2.03;;;;;;;;;;5034266;28;20474;-67
2022/07/26 09:53:43;;;;;;;1.57;0.90;;;;;;;;;;5032417;28;20466;-67
2022/07/26 09:56:09;;;;;;;0.60;0.60;;;;;;;;;;5034276;28;20425;-68
2022/07/26 09:58:36;;;;;;;3.73;0.93;;;;;;;;;;5033365;28;20516;-67
2022/07/26 10:01:03;;;;;;;1.40;1.00;;;;;;;;;;5033969;28;20901;-67
2022/07/26 10:03:30;;;;;;;9.10;0.90;;;;;;;;;;5032352;28;20518;-67
2022/07/26 10:05:57;;;;;;;0.77;0.60;;;;;;;;;;5033849;28;20443;-67
2022/07/26 10:08:23;;;;;;;4.50;0.90;;;;;;;;;;5033447;28;20559;-67
2022/07/26 10:10:54;;;;;;;0.90;0.57;;;;;;;;;;5033826;28;20466;-67
2022/07/26 10:13:20;;;;;;;4.63;0.93;;;;;;;;;;5033315;28;20857;-67
2022/07/26 10:15:47;;;;;;;2.07;0.70;;;;;;;;;;5033734;28;20407;-67
2022/07/26 10:18:32;;;;;;;0.70;0.70;;;;;;;;;;5033219;28;20537;-67
2022/07/26 10:20:58;;;;;;;0.57;0.57;;;;;;;;;;5033748;28;20422;-68
2022/07/26 10:23:32;;;;;;;1.40;0.77;;;;;;;;;;5033427;28;20419;-68
2022/07/26 10:25:58;;;;;;;1.17;0.77;;;;;;;;;;5033655;28;20180;-67
2022/07/26 10:28:26;;;;;;;0.90;0.90;;;;;;;;;;5033048;28;20438;-67
2022/07/26 10:30:52;;;;;;;2.10;0.83;;;;;;;;;;5033236;28;20954;-67
2022/07/26 10:33:21;;;;;;;0.80;0.80;;;;;;;;;;5033212;28;20427;-68
2022/07/26 10:35:47;;;;;;;1.17;0.70;;;;;;;;;;5033502;28;20419;-67
2022/07/26 10:38:14;;;;;;;1.40;0.70;;;;;;;;;;5033276;28;20469;-67
2022/07/26 10:40:59;;;;;;;1.27;0.97;;;;;;;;;;5031717;28;20496;-67
2022/07/26 10:43:26;;;;;;;0.77;0.77;;;;;;;;;;5032382;28;20434;-68
2022/07/26 10:46:10;;;;;;;2.80;1.10;;;;;;;;;;5033354;28;20914;-68
2022/07/26 10:48:54;;;;;;;0.97;0.97;;;;;;;;;;5032497;28;20798;-68
2022/07/26 10:51:25;;;;;;;0.90;0.90;;;;;;;;;;5033063;28;20489;-68
2022/07/26 10:53:58;;;;;;;7.07;1.10;;;;;;;;;;5032607;28;20466;-67
2022/07/26 10:56:24;;;;;;;1.73;1.37;;;;;;;;;;5033278;28;20430;-68
2022/07/26 10:58:50;;;;;;;5.50;0.93;;;;;;;;;;5024138;28;20435;-68
2022/07/26 11:01:16;;;;;;;0.83;0.83;;;;;;;;;;5029120;28;20188;-67
2022/07/26 11:03:43;;;;;;;2.10;0.90;;;;;;;;;;5031920;28;20454;-67
2022/07/26 11:06:16;;;;;;;0.80;0.80;;;;;;;;;;5032345;28;20443;-68
2022/07/26 11:08:43;;;;;;;0.80;0.80;;;;;;;;;;5032598;28;20427;-68
2022/07/26 11:11:09;;;;;;;1.07;1.07;;;;;;;;;;5032737;28;20533;-68
2022/07/26 11:13:36;;;;;;;1.00;1.00;;;;;;;;;;5031548;28;20939;-68
2022/07/26 11:16:04;;;;;;;1.47;1.47;;;;;;;;;;5032153;28;20927;-68
2022/07/26 11:18:33;;;;;;;1.77;1.70;;;;;;;;;;5032586;28;20895;-67
2022/07/26 11:21:28;;;;;;;3.43;1.40;;;;;;;;;;5032695;28;20507;-67
2022/07/26 11:24:01;;;;;;;0.60;0.60;;;;;;;;;;5031350;28;20434;-68
2022/07/26 11:26:27;;;;;;;2.10;0.83;;;;;;;;;;5030994;28;20433;-67
2022/07/26 11:29:00;;;;;;;2.20;1.17;;;;;;;;;;5031449;28;20427;-68
2022/07/26 11:31:28;;;;;;;1.90;1.00;;;;;;;;;;5032349;28;20814;-68
2022/07/26 11:33:55;;;;;;;0.97;0.97;;;;;;;;;;5030647;28;20416;-68
2022/07/26 11:36:33;;;;;;;8.80;1.97;;;;;;;;;;5029806;28;20440;-68
2022/07/26 11:39:00;;;;;;;0.90;0.90;;;;;;;;;;5031280;28;20439;-68
2022/07/26 11:41:28;;;;;;;1.10;1.00;;;;;;;;;;5030472;28;20432;-68
2022/07/26 11:43:55;;;;;;;1.00;1.00;;;;;;;;;;5030681;28;20799;-68
2022/07/26 11:46:21;;;;;;;1.60;0.80;;;;;;;;;;5032567;28;20459;-67
2022/07/26 11:48:48;;;;;;;0.90;0.90;;;;;;;;;;5032303;28;20470;-68
2022/07/26 11:51:15;;;;;;;1.60;0.97;;;;;;;;;;5031549;28;20990;-67
2022/07/26 11:53:42;;;;;;;6.73;1.10;;;;;;;;;;5031601;28;20554;-68
2022/07/26 11:56:19;;;;;;;1.70;0.83;;;;;;;;;;5032391;28;20931;-67
2022/07/26 11:58:46;;;;;;;0.90;0.90;;;;;;;;;;5031518;28;20413;-68
2022/07/26 12:01:13;;;;;;;1.07;1.07;;;;;;;;;;5032081;28;20485;-68
2022/07/26 12:03:40;;;;;;;0.80;0.77;;;;;;;;;;5032090;28;20462;-76
2022/07/26 12:06:07;;;;;;;1.13;1.00;;;;;;;;;;5029929;28;20536;-76
2022/07/26 12:08:44;;;;;;;4.37;3.13;;;;;;;;;;5030173;28;20542;-77
2022/07/26 12:11:10;;;;;;;0.80;0.70;;;;;;;;;;5026843;28;20529;-74
2022/07/26 12:13:51;;;;;;;1.97;0.90;;;;;;;;;;5031115;28;20530;-78
2022/07/26 12:16:37;;;;;;;0.90;0.90;;;;;;;;;;5051972;28;20479;-74
2022/07/26 12:19:03;;;;;;;1.13;0.90;;;;;;;;;;5013975;28;20412;-81
2022/07/26 12:21:40;;;;;;;1.27;0.83;;;;;;;;;;5027969;28;20896;-81
2022/07/26 12:24:07;;;;;;;0.83;0.83;;;;;;;;;;5031179;28;20466;-76
2022/07/26 12:26:33;;;;;;;0.73;0.73;;;;;;;;;;5031064;28;20435;-74
2022/07/26 12:29:23;;;;;;;0.80;0.80;;;;;;;;;;5032034;28;20900;-80
2022/07/26 12:31:46;;;;;;;1.97;0.97;;;;;;;;;;5029010;28;20892;-81
2022/07/26 12:34:12;;;;;;;0.80;0.80;;;;;;;;;;5029506;28;20931;-73
2022/07/26 12:36:38;;;;;;;0.80;0.80;;;;;;;;;;5030971;28;20481;-77
2022/07/26 12:39:04;;;;;;;0.63;0.63;;;;;;;;;;5021574;28;20432;-77
2022/07/26 12:41:33;;;;;;;4.63;0.90;;;;;;;;;;5013939;28;20419;-75
2022/07/26 12:43:59;;;;;;;0.80;0.80;;;;;;;;;;5032264;28;20427;-75
2022/07/26 12:46:25;;;;;;;0.83;0.83;;;;;;;;;;5034278;28;20411;-74
2022/07/26 12:48:51;;;;;;;1.13;1.03;;;;;;;;;;5034928;28;20438;-73
2022/07/26 12:51:17;;;;;;;0.80;0.80;;;;;;;;;;5034837;28;20825;-75
2022/07/26 12:53:43;;;;;;;1.10;1.10;;;;;;;;;;5034437;28;20603;-78
2022/07/26 12:56:09;;;;;;;1.73;0.90;;;;;;;;;;5033785;28;20529;-74
2022/07/26 12:58:35;;;;;;;2.83;0.93;;;;;;;;;;5034913;28;20446;-79
2022/07/26 13:01:01;;;;;;;0.70;0.70;;;;;;;;;;5034001;28;20455;-78
2022/07/26 13:03:27;;;;;;;1.03;0.90;;;;;;;;;;5034536;28;20189;-77
2022/07/26 13:05:53;;;;;;;0.93;0.93;;;;;;;;;;5035019;28;20771;-77
2022/07/26 13:08:19;;;;;;;0.80;0.80;;;;;;;;;;5033985;28;20526;-77
2022/07/26 13:10:45;;;;;;;0.80;0.80;;;;;;;;;;5034827;28;20180;-80
2022/07/26 13:13:11;;;;;;;1.23;0.80;;;;;;;;;;5034208;28;20419;-76
2022/07/26 13:15:37;;;;;;;0.83;0.77;;;;;;;;;;5035115;28;20181;-78
2022/07/26 13:18:03;;;;;;;0.93;0.93;;;;;;;;;;5033483;28;20791;-81
2022/07/26 13:20:28;;;;;;;0.80;0.80;;;;;;;;;;5034966;28;20415;-79
2022/07/26 13:22:54;;;;;;;1.07;1.07;;;;;;;;;;5034529;28;20416;-79
2022/07/26 13:25:20;;;;;;;0.60;0.53;;;;;;;;;;5033994;28;20188;-80
2022/07/26 13:27:46;;;;;;;1.27;1.23;;;;;;;;;;5034553;28;20259;-72
2022/07/26 13:30:12;;;;;;;0.80;0.80;;;;;;;;;;5034621;28;20181;-79
2022/07/26 13:32:38;;;;;;;2.37;1.00;;;;;;;;;;5034144;28;20255;-80
2022/07/26 13:35:04;;;;;;;0.70;0.70;;;;;;;;;;5029870;28;20467;-73
2022/07/26 13:37:30;;;;;;;2.47;0.90;;;;;;;;;;5034020;28;20701;-73
2022/07/26 13:39:56;;;;;;;0.73;0.73;;;;;;;;;;5034339;28;20550;-81
2022/07/26 13:42:22;;;;;;;0.97;0.80;;;;;;;;;;5033379;28;20216;-73
2022/07/26 13:44:48;;;;;;;0.80;0.80;;;;;;;;;;5034128;28;20415;-81
2022/07/26 13:47:14;;;;;;;3.30;0.80;;;;;;;;;;5032741;28;20433;-84
2022/07/26 13:49:40;;;;;;;0.60;0.60;;;;;;;;;;5033088;28;20181;-78
2022/07/26 13:52:06;;;;;;;1.13;1.07;;;;;;;;;;5032812;28;20501;-81
2022/07/26 13:54:33;;;;;;;5.20;1.17;;;;;;;;;;5033724;28;20487;-83
2022/07/26 13:56:59;;;;;;;1.30;1.20;;;;;;;;;;5033268;28;20435;-82
2022/07/26 13:59:26;;;;;;;0.93;0.93;;;;;;;;;;5033831;28;20447;-81
2022/07/26 14:01:52;;;;;;;1.03;1.03;;;;;;;;;;5033760;28;20424;-84
2022/07/26 14:04:18;;;;;;;1.43;0.60;;;;;;;;;;5033721;28;20424;-79
2022/07/26 14:06:45;;;;;;;0.73;0.73;;;;;;;;;;5033680;28;20436;-80
2022/07/26 14:09:11;;;;;;;0.80;0.80;;;;;;;;;;5034231;28;20415;-78
2022/07/26 14:11:37;;;;;;;1.50;1.03;;;;;;;;;;5033589;28;20475;-71
2022/07/26 14:14:04;;;;;;;1.23;0.87;;;;;;;;;;5033624;28;20423;-70
2022/07/26 14:16:30;;;;;;;0.77;0.77;;;;;;;;;;5033789;28;20974;-70
2022/07/26 14:18:58;;;;;;;0.93;0.70;;;;;;;;;;5033366;28;20466;-79
2022/07/26 14:21:25;;;;;;;0.70;0.70;;;;;;;;;;5032717;28;20434;-80
2022/07/26 14:23:51;;;;;;;1.00;1.00;;;;;;;;;;5032096;28;20423;-79
2022/07/26 14:26:17;;;;;;;0.60;0.60;;;;;;;;;;5033452;28;20934;-77
2022/07/26 14:28:43;;;;;;;0.87;0.87;;;;;;;;;;5033327;28;20469;-80
2022/07/26 14:31:09;;;;;;;0.80;0.80;;;;;;;;;;5033389;28;20474;-78
2022/07/26 14:33:35;;;;;;;0.60;0.60;;;;;;;;;;5031176;28;20451;-74
2022/07/26 14:36:01;;;;;;;0.93;0.60;;;;;;;;;;5033612;28;20482;-73
2022/07/26 14:38:27;;;;;;;0.90;0.90;;;;;;;;;;5033138;28;20443;-77
2022/07/26 14:40:54;;;;;;;0.60;0.60;;;;;;;;;;5031985;28;20300;-74
2022/07/26 14:43:20;;;;;;;8.80;1.40;;;;;;;;;;5031804;28;20436;-76
2022/07/26 14:45:46;;;;;;;1.00;1.00;;;;;;;;;;5033506;28;20415;-75